sensor_id;sensor_type;location;lat;lon;timestamp;P1;durP1;ratioP1;P2;durP2;ratioP2
40044;SDS011;25735;48.122;11.422;2022-10-01T00:00:22;8.18;;;5.55;;
40044;SDS011;25735;48.122;11.422;2022-10-01T00:02:47;9.85;;;6.78;;
40044;SDS011;25735;48.122;11.422;2022-10-01T00:05:12;7.50;;;6.70;;
40044;SDS011;25735;48.122;11.422;2022-10-01T00:07:38;9.30;;;6.87;;
40044;SDS011;25735;48.122;11.422;2022-10-01T00:10:03;9.95;;;6.78;;
40044;SDS011;25735;48.122;11.422;2022-10-01T00:12:29;8.68;;;7.30;;
40044;SDS011;25735;48.122;11.422;2022-10-01T00:14:54;9.52;;;8.30;;
40044;SDS011;25735;48.122;11.422;2022-10-01T00:17:19;9.50;;;8.02;;
40044;SDS011;25735;48.122;11.422;2022-10-01T00:19:44;9.53;;;8.10;;
40044;SDS011;25735;48.122;11.422;2022-10-01T00:22:10;12.18;;;8.57;;
40044;SDS011;25735;48.122;11.422;2022-10-01T00:24:35;12.63;;;9.10;;
40044;SDS011;25735;48.122;11.422;2022-10-01T00:27:01;12.68;;;10.77;;
40044;SDS011;25735;48.122;11.422;2022-10-01T00:29:27;11.43;;;10.23;;
40044;SDS011;25735;48.122;11.422;2022-10-01T00:31:52;12.73;;;10.37;;
40044;SDS011;25735;48.122;11.422;2022-10-01T00:34:17;13.40;;;10.27;;
40044;SDS011;25735;48.122;11.422;2022-10-01T00:36:42;10.33;;;8.87;;
40044;SDS011;25735;48.122;11.422;2022-10-01T00:39:08;11.73;;;9.73;;
40044;SDS011;25735;48.122;11.422;2022-10-01T00:41:34;13.10;;;10.90;;
40044;SDS011;25735;48.122;11.422;2022-10-01T00:44:01;14.73;;;10.60;;
40044;SDS011;25735;48.122;11.422;2022-10-01T00:51:31;11.10;;;9.90;;
40044;SDS011;25735;48.122;11.422;2022-10-01T00:54:03;11.80;;;9.23;;
40044;SDS011;25735;48.122;11.422;2022-10-01T00:56:29;12.63;;;10.02;;
40044;SDS011;25735;48.122;11.422;2022-10-01T00:58:55;11.95;;;9.80;;
40044;SDS011;25735;48.122;11.422;2022-10-01T01:01:20;16.80;;;11.37;;
40044;SDS011;25735;48.122;11.422;2022-10-01T01:03:45;11.73;;;10.20;;
40044;SDS011;25735;48.122;11.422;2022-10-01T01:06:11;12.90;;;11.13;;
40044;SDS011;25735;48.122;11.422;2022-10-01T01:08:36;13.90;;;10.13;;
40044;SDS011;25735;48.122;11.422;2022-10-01T01:11:12;14.75;;;11.32;;
40044;SDS011;25735;48.122;11.422;2022-10-01T01:13:49;13.65;;;11.18;;
40044;SDS011;25735;48.122;11.422;2022-10-01T01:16:23;12.57;;;11.23;;
40044;SDS011;25735;48.122;11.422;2022-10-01T01:24:30;14.10;;;11.15;;
40044;SDS011;25735;48.122;11.422;2022-10-01T01:27:07;13.98;;;11.38;;
40044;SDS011;25735;48.122;11.422;2022-10-01T01:32:00;16.05;;;12.23;;
40044;SDS011;25735;48.122;11.422;2022-10-01T01:34:28;14.45;;;11.63;;
40044;SDS011;25735;48.122;11.422;2022-10-01T01:36:56;16.65;;;11.88;;
40044;SDS011;25735;48.122;11.422;2022-10-01T01:39:22;16.23;;;13.65;;
40044;SDS011;25735;48.122;11.422;2022-10-01T01:41:51;16.88;;;13.73;;
40044;SDS011;25735;48.122;11.422;2022-10-01T01:44:28;14.88;;;12.32;;
40044;SDS011;25735;48.122;11.422;2022-10-01T01:46:55;15.95;;;13.23;;
40044;SDS011;25735;48.122;11.422;2022-10-01T01:49:21;15.57;;;12.52;;
40044;SDS011;25735;48.122;11.422;2022-10-01T01:51:55;16.65;;;12.63;;
40044;SDS011;25735;48.122;11.422;2022-10-01T01:54:23;13.55;;;12.10;;
40044;SDS011;25735;48.122;11.422;2022-10-01T01:56:49;16.95;;;12.60;;
40044;SDS011;25735;48.122;11.422;2022-10-01T01:59:15;14.70;;;11.45;;
40044;SDS011;25735;48.122;11.422;2022-10-01T02:01:42;21.85;;;14.18;;
40044;SDS011;25735;48.122;11.422;2022-10-01T02:04:13;15.77;;;12.93;;
40044;SDS011;25735;48.122;11.422;2022-10-01T02:06:47;15.60;;;11.82;;
40044;SDS011;25735;48.122;11.422;2022-10-01T02:17:14;16.92;;;12.30;;
40044;SDS011;25735;48.122;11.422;2022-10-01T02:22:20;16.95;;;13.23;;
40044;SDS011;25735;48.122;11.422;2022-10-01T02:24:56;17.42;;;12.70;;
40044;SDS011;25735;48.122;11.422;2022-10-01T02:27:29;14.35;;;12.07;;
40044;SDS011;25735;48.122;11.422;2022-10-01T02:30:00;16.33;;;12.68;;
40044;SDS011;25735;48.122;11.422;2022-10-01T02:32:27;15.10;;;12.35;;
40044;SDS011;25735;48.122;11.422;2022-10-01T02:34:53;14.50;;;12.35;;
40044;SDS011;25735;48.122;11.422;2022-10-01T02:37:19;18.05;;;13.55;;
40044;SDS011;25735;48.122;11.422;2022-10-01T02:39:45;17.55;;;12.85;;
40044;SDS011;25735;48.122;11.422;2022-10-01T02:42:11;16.38;;;13.52;;
40044;SDS011;25735;48.122;11.422;2022-10-01T02:44:38;16.23;;;12.52;;
40044;SDS011;25735;48.122;11.422;2022-10-01T02:47:12;14.82;;;11.68;;
40044;SDS011;25735;48.122;11.422;2022-10-01T02:49:38;16.40;;;12.48;;
40044;SDS011;25735;48.122;11.422;2022-10-01T02:54:33;14.77;;;11.98;;
40044;SDS011;25735;48.122;11.422;2022-10-01T02:56:59;14.43;;;11.98;;
40044;SDS011;25735;48.122;11.422;2022-10-01T02:59:43;16.95;;;12.10;;
40044;SDS011;25735;48.122;11.422;2022-10-01T03:02:08;15.20;;;11.87;;
40044;SDS011;25735;48.122;11.422;2022-10-01T03:04:33;14.88;;;11.05;;
40044;SDS011;25735;48.122;11.422;2022-10-01T03:06:59;18.30;;;12.50;;
40044;SDS011;25735;48.122;11.422;2022-10-01T03:09:28;15.35;;;12.27;;
40044;SDS011;25735;48.122;11.422;2022-10-01T03:11:53;16.67;;;11.35;;
40044;SDS011;25735;48.122;11.422;2022-10-01T03:14:19;16.98;;;12.18;;
40044;SDS011;25735;48.122;11.422;2022-10-01T03:16:44;15.20;;;11.67;;
40044;SDS011;25735;48.122;11.422;2022-10-01T03:19:09;17.73;;;12.27;;
40044;SDS011;25735;48.122;11.422;2022-10-01T03:21:34;12.53;;;10.03;;
40044;SDS011;25735;48.122;11.422;2022-10-01T03:23:59;13.13;;;10.68;;
40044;SDS011;25735;48.122;11.422;2022-10-01T03:26:25;12.50;;;10.43;;
40044;SDS011;25735;48.122;11.422;2022-10-01T03:28:50;13.13;;;11.40;;
40044;SDS011;25735;48.122;11.422;2022-10-01T03:31:15;16.00;;;11.52;;
40044;SDS011;25735;48.122;11.422;2022-10-01T03:33:40;14.07;;;10.52;;
40044;SDS011;25735;48.122;11.422;2022-10-01T03:36:05;14.00;;;10.20;;
40044;SDS011;25735;48.122;11.422;2022-10-01T03:38:30;12.23;;;10.13;;
40044;SDS011;25735;48.122;11.422;2022-10-01T03:40:56;14.30;;;10.60;;
40044;SDS011;25735;48.122;11.422;2022-10-01T03:43:21;12.32;;;9.25;;
40044;SDS011;25735;48.122;11.422;2022-10-01T03:45:46;13.73;;;10.45;;
40044;SDS011;25735;48.122;11.422;2022-10-01T03:48:12;12.85;;;10.18;;
40044;SDS011;25735;48.122;11.422;2022-10-01T03:50:37;11.52;;;8.95;;
40044;SDS011;25735;48.122;11.422;2022-10-01T03:53:02;14.10;;;9.57;;
40044;SDS011;25735;48.122;11.422;2022-10-01T03:55:28;12.45;;;10.27;;
40044;SDS011;25735;48.122;11.422;2022-10-01T03:57:53;11.23;;;8.63;;
40044;SDS011;25735;48.122;11.422;2022-10-01T04:00:18;12.97;;;9.60;;
40044;SDS011;25735;48.122;11.422;2022-10-01T04:02:43;11.18;;;8.68;;
40044;SDS011;25735;48.122;11.422;2022-10-01T04:05:09;13.17;;;9.43;;
40044;SDS011;25735;48.122;11.422;2022-10-01T04:07:34;11.30;;;8.95;;
40044;SDS011;25735;48.122;11.422;2022-10-01T04:09:59;11.77;;;8.87;;
40044;SDS011;25735;48.122;11.422;2022-10-01T04:12:24;13.00;;;8.37;;
40044;SDS011;25735;48.122;11.422;2022-10-01T04:14:50;12.20;;;8.38;;
40044;SDS011;25735;48.122;11.422;2022-10-01T04:17:15;11.17;;;8.77;;
40044;SDS011;25735;48.122;11.422;2022-10-01T04:19:40;11.00;;;8.13;;
40044;SDS011;25735;48.122;11.422;2022-10-01T04:22:05;11.07;;;8.97;;
40044;SDS011;25735;48.122;11.422;2022-10-01T04:24:30;10.27;;;8.83;;
40044;SDS011;25735;48.122;11.422;2022-10-01T04:26:56;10.60;;;8.60;;
40044;SDS011;25735;48.122;11.422;2022-10-01T04:29:21;8.50;;;6.97;;
40044;SDS011;25735;48.122;11.422;2022-10-01T04:31:46;10.93;;;8.30;;
40044;SDS011;25735;48.122;11.422;2022-10-01T04:34:11;9.73;;;7.97;;
40044;SDS011;25735;48.122;11.422;2022-10-01T04:36:36;10.05;;;7.03;;
40044;SDS011;25735;48.122;11.422;2022-10-01T04:39:01;7.77;;;6.20;;
40044;SDS011;25735;48.122;11.422;2022-10-01T04:41:27;7.17;;;6.33;;
40044;SDS011;25735;48.122;11.422;2022-10-01T04:43:54;8.30;;;6.65;;
40044;SDS011;25735;48.122;11.422;2022-10-01T04:46:19;7.80;;;6.50;;
40044;SDS011;25735;48.122;11.422;2022-10-01T04:48:46;8.35;;;6.68;;
40044;SDS011;25735;48.122;11.422;2022-10-01T04:51:11;9.30;;;7.43;;
40044;SDS011;25735;48.122;11.422;2022-10-01T04:53:36;9.83;;;6.97;;
40044;SDS011;25735;48.122;11.422;2022-10-01T04:56:01;8.83;;;6.83;;
40044;SDS011;25735;48.122;11.422;2022-10-01T04:58:26;8.77;;;7.00;;
40044;SDS011;25735;48.122;11.422;2022-10-01T05:00:52;9.10;;;6.93;;
40044;SDS011;25735;48.122;11.422;2022-10-01T05:03:17;10.17;;;7.73;;
40044;SDS011;25735;48.122;11.422;2022-10-01T05:05:42;10.07;;;7.60;;
40044;SDS011;25735;48.122;11.422;2022-10-01T05:08:07;8.80;;;6.77;;
40044;SDS011;25735;48.122;11.422;2022-10-01T05:10:32;8.17;;;6.37;;
40044;SDS011;25735;48.122;11.422;2022-10-01T05:12:58;8.13;;;6.30;;
40044;SDS011;25735;48.122;11.422;2022-10-01T05:15:25;9.80;;;7.35;;
40044;SDS011;25735;48.122;11.422;2022-10-01T05:17:50;8.85;;;7.13;;
40044;SDS011;25735;48.122;11.422;2022-10-01T05:20:16;8.45;;;6.65;;
40044;SDS011;25735;48.122;11.422;2022-10-01T05:22:42;8.88;;;6.88;;
40044;SDS011;25735;48.122;11.422;2022-10-01T05:25:07;10.98;;;7.22;;
40044;SDS011;25735;48.122;11.422;2022-10-01T05:27:33;8.55;;;7.03;;
40044;SDS011;25735;48.122;11.422;2022-10-01T05:30:02;9.63;;;7.88;;
40044;SDS011;25735;48.122;11.422;2022-10-01T05:32:28;8.88;;;6.95;;
40044;SDS011;25735;48.122;11.422;2022-10-01T05:34:53;8.90;;;7.17;;
40044;SDS011;25735;48.122;11.422;2022-10-01T05:37:19;9.07;;;7.80;;
40044;SDS011;25735;48.122;11.422;2022-10-01T05:39:44;9.07;;;7.57;;
40044;SDS011;25735;48.122;11.422;2022-10-01T05:42:09;10.37;;;8.23;;
40044;SDS011;25735;48.122;11.422;2022-10-01T05:44:34;8.50;;;6.93;;
40044;SDS011;25735;48.122;11.422;2022-10-01T05:47:02;8.70;;;7.45;;
40044;SDS011;25735;48.122;11.422;2022-10-01T05:49:27;8.70;;;6.85;;
40044;SDS011;25735;48.122;11.422;2022-10-01T05:51:52;9.90;;;7.40;;
40044;SDS011;25735;48.122;11.422;2022-10-01T05:54:17;9.33;;;7.10;;
40044;SDS011;25735;48.122;11.422;2022-10-01T05:56:43;8.23;;;6.55;;
40044;SDS011;25735;48.122;11.422;2022-10-01T05:59:08;8.60;;;7.70;;
40044;SDS011;25735;48.122;11.422;2022-10-01T06:01:33;7.27;;;6.30;;
40044;SDS011;25735;48.122;11.422;2022-10-01T06:03:59;8.50;;;6.72;;
40044;SDS011;25735;48.122;11.422;2022-10-01T06:06:24;7.35;;;6.40;;
40044;SDS011;25735;48.122;11.422;2022-10-01T06:08:50;8.73;;;6.53;;
40044;SDS011;25735;48.122;11.422;2022-10-01T06:11:15;9.17;;;7.17;;
40044;SDS011;25735;48.122;11.422;2022-10-01T06:13:41;7.75;;;6.47;;
40044;SDS011;25735;48.122;11.422;2022-10-01T06:16:09;7.40;;;6.13;;
40044;SDS011;25735;48.122;11.422;2022-10-01T06:18:34;7.60;;;6.80;;
40044;SDS011;25735;48.122;11.422;2022-10-01T06:20:59;7.13;;;5.80;;
40044;SDS011;25735;48.122;11.422;2022-10-01T06:23:24;7.70;;;6.40;;
40044;SDS011;25735;48.122;11.422;2022-10-01T06:25:50;10.50;;;7.47;;
40044;SDS011;25735;48.122;11.422;2022-10-01T06:28:15;7.57;;;6.40;;
40044;SDS011;25735;48.122;11.422;2022-10-01T06:30:40;10.03;;;6.47;;
40044;SDS011;25735;48.122;11.422;2022-10-01T06:33:09;7.22;;;6.28;;
40044;SDS011;25735;48.122;11.422;2022-10-01T06:35:38;7.82;;;6.43;;
40044;SDS011;25735;48.122;11.422;2022-10-01T06:38:03;8.88;;;6.38;;
40044;SDS011;25735;48.122;11.422;2022-10-01T06:40:30;9.00;;;6.50;;
40044;SDS011;25735;48.122;11.422;2022-10-01T06:42:55;6.78;;;5.40;;
40044;SDS011;25735;48.122;11.422;2022-10-01T06:45:22;9.35;;;6.00;;
40044;SDS011;25735;48.122;11.422;2022-10-01T06:47:54;7.78;;;5.72;;
40044;SDS011;25735;48.122;11.422;2022-10-01T06:52:44;6.80;;;5.82;;
40044;SDS011;25735;48.122;11.422;2022-10-01T06:55:13;6.75;;;5.72;;
40044;SDS011;25735;48.122;11.422;2022-10-01T06:57:38;7.63;;;6.25;;
40044;SDS011;25735;48.122;11.422;2022-10-01T07:00:03;6.73;;;5.57;;
40044;SDS011;25735;48.122;11.422;2022-10-01T07:02:28;9.10;;;6.35;;
40044;SDS011;25735;48.122;11.422;2022-10-01T07:04:54;6.70;;;6.05;;
40044;SDS011;25735;48.122;11.422;2022-10-01T07:07:22;6.20;;;5.60;;
40044;SDS011;25735;48.122;11.422;2022-10-01T07:09:48;6.43;;;5.50;;
40044;SDS011;25735;48.122;11.422;2022-10-01T07:12:13;7.07;;;5.72;;
40044;SDS011;25735;48.122;11.422;2022-10-01T07:14:38;5.93;;;4.80;;
40044;SDS011;25735;48.122;11.422;2022-10-01T07:17:03;7.38;;;5.30;;
40044;SDS011;25735;48.122;11.422;2022-10-01T07:19:29;6.22;;;5.60;;
40044;SDS011;25735;48.122;11.422;2022-10-01T07:21:55;6.38;;;5.45;;
40044;SDS011;25735;48.122;11.422;2022-10-01T07:24:20;6.17;;;5.00;;
40044;SDS011;25735;48.122;11.422;2022-10-01T07:26:46;5.13;;;4.65;;
40044;SDS011;25735;48.122;11.422;2022-10-01T07:29:14;4.97;;;3.72;;
40044;SDS011;25735;48.122;11.422;2022-10-01T07:31:40;4.20;;;3.22;;
40044;SDS011;25735;48.122;11.422;2022-10-01T07:34:05;3.17;;;2.73;;
40044;SDS011;25735;48.122;11.422;2022-10-01T07:36:30;2.47;;;2.27;;
40044;SDS011;25735;48.122;11.422;2022-10-01T07:38:55;2.77;;;2.20;;
40044;SDS011;25735;48.122;11.422;2022-10-01T07:41:20;2.72;;;2.15;;
40044;SDS011;25735;48.122;11.422;2022-10-01T07:43:47;3.13;;;2.28;;
40044;SDS011;25735;48.122;11.422;2022-10-01T07:46:13;2.58;;;1.77;;
40044;SDS011;25735;48.122;11.422;2022-10-01T07:48:38;2.83;;;2.13;;
40044;SDS011;25735;48.122;11.422;2022-10-01T07:51:04;1.70;;;1.60;;
40044;SDS011;25735;48.122;11.422;2022-10-01T07:53:29;1.95;;;1.75;;
40044;SDS011;25735;48.122;11.422;2022-10-01T07:55:54;1.60;;;1.50;;
40044;SDS011;25735;48.122;11.422;2022-10-01T07:58:20;3.35;;;1.45;;
40044;SDS011;25735;48.122;11.422;2022-10-01T08:00:48;3.03;;;1.77;;
40044;SDS011;25735;48.122;11.422;2022-10-01T08:03:13;1.83;;;1.70;;
40044;SDS011;25735;48.122;11.422;2022-10-01T08:05:39;1.97;;;1.77;;
40044;SDS011;25735;48.122;11.422;2022-10-01T08:08:04;2.33;;;1.90;;
40044;SDS011;25735;48.122;11.422;2022-10-01T08:10:31;1.98;;;1.63;;
40044;SDS011;25735;48.122;11.422;2022-10-01T08:13:00;1.92;;;1.73;;
40044;SDS011;25735;48.122;11.422;2022-10-01T08:15:25;1.83;;;1.73;;
40044;SDS011;25735;48.122;11.422;2022-10-01T08:17:50;4.38;;;2.20;;
40044;SDS011;25735;48.122;11.422;2022-10-01T08:20:16;1.80;;;1.70;;
40044;SDS011;25735;48.122;11.422;2022-10-01T08:22:41;1.43;;;1.30;;
40044;SDS011;25735;48.122;11.422;2022-10-01T08:25:06;1.60;;;1.50;;
40044;SDS011;25735;48.122;11.422;2022-10-01T08:27:31;1.38;;;1.25;;
40044;SDS011;25735;48.122;11.422;2022-10-01T08:29:57;2.13;;;1.17;;
40044;SDS011;25735;48.122;11.422;2022-10-01T08:32:22;3.40;;;1.38;;
40044;SDS011;25735;48.122;11.422;2022-10-01T08:34:49;1.30;;;1.20;;
40044;SDS011;25735;48.122;11.422;2022-10-01T08:37:15;1.83;;;1.05;;
40044;SDS011;25735;48.122;11.422;2022-10-01T08:39:41;0.90;;;0.90;;
40044;SDS011;25735;48.122;11.422;2022-10-01T08:42:21;1.67;;;1.20;;
40044;SDS011;25735;48.122;11.422;2022-10-01T08:44:48;1.10;;;1.00;;
40044;SDS011;25735;48.122;11.422;2022-10-01T08:47:16;1.65;;;1.38;;
40044;SDS011;25735;48.122;11.422;2022-10-01T08:49:52;1.00;;;0.90;;
40044;SDS011;25735;48.122;11.422;2022-10-01T08:52:29;1.48;;;1.38;;
40044;SDS011;25735;48.122;11.422;2022-10-01T08:55:00;1.30;;;0.95;;
40044;SDS011;25735;48.122;11.422;2022-10-01T08:57:28;1.88;;;1.10;;
40044;SDS011;25735;48.122;11.422;2022-10-01T08:59:55;1.23;;;1.13;;
40044;SDS011;25735;48.122;11.422;2022-10-01T09:02:23;1.08;;;0.98;;
40044;SDS011;25735;48.122;11.422;2022-10-01T09:04:58;1.38;;;0.93;;
40044;SDS011;25735;48.122;11.422;2022-10-01T09:07:40;3.17;;;1.20;;
40044;SDS011;25735;48.122;11.422;2022-10-01T09:10:19;1.95;;;1.00;;
40044;SDS011;25735;48.122;11.422;2022-10-01T09:15:25;1.20;;;1.10;;
40044;SDS011;25735;48.122;11.422;2022-10-01T09:17:57;9.00;;;1.08;;
40044;SDS011;25735;48.122;11.422;2022-10-01T09:25:36;1.05;;;0.95;;
40044;SDS011;25735;48.122;11.422;2022-10-01T09:28:21;0.75;;;0.75;;
40044;SDS011;25735;48.122;11.422;2022-10-01T09:30:49;1.75;;;0.82;;
40044;SDS011;25735;48.122;11.422;2022-10-01T09:33:19;2.42;;;1.17;;
40044;SDS011;25735;48.122;11.422;2022-10-01T09:35:52;1.10;;;0.85;;
40044;SDS011;25735;48.122;11.422;2022-10-01T09:40:57;0.80;;;0.80;;
40044;SDS011;25735;48.122;11.422;2022-10-01T09:43:26;1.08;;;0.82;;
40044;SDS011;25735;48.122;11.422;2022-10-01T09:45:52;1.75;;;1.05;;
40044;SDS011;25735;48.122;11.422;2022-10-01T09:51:03;0.60;;;0.60;;
40044;SDS011;25735;48.122;11.422;2022-10-01T09:53:35;1.65;;;0.95;;
40044;SDS011;25735;48.122;11.422;2022-10-01T09:56:04;2.55;;;1.67;;
40044;SDS011;25735;48.122;11.422;2022-10-01T09:58:33;1.50;;;1.03;;
40044;SDS011;25735;48.122;11.422;2022-10-01T10:01:00;2.42;;;0.80;;
40044;SDS011;25735;48.122;11.422;2022-10-01T10:03:26;1.25;;;1.15;;
40044;SDS011;25735;48.122;11.422;2022-10-01T10:05:54;1.20;;;1.08;;
40044;SDS011;25735;48.122;11.422;2022-10-01T10:08:21;3.20;;;1.40;;
40044;SDS011;25735;48.122;11.422;2022-10-01T10:10:52;1.50;;;1.30;;
40044;SDS011;25735;48.122;11.422;2022-10-01T10:13:22;2.08;;;1.70;;
40044;SDS011;25735;48.122;11.422;2022-10-01T10:15:51;1.77;;;1.30;;
40044;SDS011;25735;48.122;11.422;2022-10-01T10:18:19;2.85;;;1.23;;
40044;SDS011;25735;48.122;11.422;2022-10-01T10:20:49;1.50;;;1.40;;
40044;SDS011;25735;48.122;11.422;2022-10-01T10:23:16;1.02;;;0.95;;
40044;SDS011;25735;48.122;11.422;2022-10-01T10:25:42;1.67;;;1.02;;
40044;SDS011;25735;48.122;11.422;2022-10-01T10:28:17;5.82;;;1.17;;
40044;SDS011;25735;48.122;11.422;2022-10-01T10:30:43;2.00;;;1.80;;
40044;SDS011;25735;48.122;11.422;2022-10-01T10:33:10;2.00;;;1.35;;
40044;SDS011;25735;48.122;11.422;2022-10-01T10:35:37;1.65;;;1.30;;
40044;SDS011;25735;48.122;11.422;2022-10-01T10:38:03;1.42;;;1.00;;
40044;SDS011;25735;48.122;11.422;2022-10-01T10:40:33;1.97;;;1.37;;
40044;SDS011;25735;48.122;11.422;2022-10-01T10:43:03;1.23;;;1.15;;
40044;SDS011;25735;48.122;11.422;2022-10-01T10:45:30;1.23;;;1.13;;
40044;SDS011;25735;48.122;11.422;2022-10-01T10:47:57;2.55;;;1.38;;
40044;SDS011;25735;48.122;11.422;2022-10-01T10:52:50;2.45;;;1.40;;
40044;SDS011;25735;48.122;11.422;2022-10-01T10:55:26;1.38;;;1.20;;
40044;SDS011;25735;48.122;11.422;2022-10-01T10:57:52;2.08;;;1.60;;
40044;SDS011;25735;48.122;11.422;2022-10-01T11:00:18;2.17;;;1.55;;
40044;SDS011;25735;48.122;11.422;2022-10-01T11:02:48;1.50;;;1.40;;
40044;SDS011;25735;48.122;11.422;2022-10-01T11:05:22;1.52;;;1.42;;
40044;SDS011;25735;48.122;11.422;2022-10-01T11:07:47;1.25;;;1.15;;
40044;SDS011;25735;48.122;11.422;2022-10-01T11:12:49;2.67;;;1.70;;
40044;SDS011;25735;48.122;11.422;2022-10-01T11:18:28;1.75;;;1.40;;
40044;SDS011;25735;48.122;11.422;2022-10-01T11:36:21;1.70;;;1.50;;
40044;SDS011;25735;48.122;11.422;2022-10-01T11:38:52;1.60;;;1.50;;
40044;SDS011;25735;48.122;11.422;2022-10-01T11:41:21;2.08;;;1.88;;
40044;SDS011;25735;48.122;11.422;2022-10-01T11:43:51;2.08;;;1.88;;
40044;SDS011;25735;48.122;11.422;2022-10-01T11:46:27;2.80;;;2.28;;
40044;SDS011;25735;48.122;11.422;2022-10-01T11:48:58;3.00;;;2.35;;
40044;SDS011;25735;48.122;11.422;2022-10-01T11:51:28;2.80;;;2.42;;
40044;SDS011;25735;48.122;11.422;2022-10-01T11:53:57;2.83;;;2.50;;
40044;SDS011;25735;48.122;11.422;2022-10-01T11:56:31;5.18;;;2.28;;
40044;SDS011;25735;48.122;11.422;2022-10-01T12:01:55;4.07;;;1.70;;
40044;SDS011;25735;48.122;11.422;2022-10-01T12:09:52;2.10;;;1.90;;
40044;SDS011;25735;48.122;11.422;2022-10-01T12:15:11;3.05;;;2.20;;
40044;SDS011;25735;48.122;11.422;2022-10-01T12:17:45;2.47;;;2.13;;
40044;SDS011;25735;48.122;11.422;2022-10-01T12:20:19;2.35;;;2.00;;
40044;SDS011;25735;48.122;11.422;2022-10-01T12:22:47;2.92;;;1.92;;
40044;SDS011;25735;48.122;11.422;2022-10-01T12:25:13;2.22;;;2.03;;
40044;SDS011;25735;48.122;11.422;2022-10-01T12:32:46;2.72;;;1.75;;
40044;SDS011;25735;48.122;11.422;2022-10-01T12:35:24;2.30;;;1.98;;
40044;SDS011;25735;48.122;11.422;2022-10-01T12:43:35;3.78;;;2.70;;
40044;SDS011;25735;48.122;11.422;2022-10-01T12:48:43;5.05;;;2.50;;
40044;SDS011;25735;48.122;11.422;2022-10-01T12:56:41;3.20;;;2.00;;
40044;SDS011;25735;48.122;11.422;2022-10-01T13:04:57;4.22;;;1.65;;
40044;SDS011;25735;48.122;11.422;2022-10-01T13:14:53;1.80;;;1.38;;
40044;SDS011;25735;48.122;11.422;2022-10-01T13:19:57;1.02;;;1.00;;
40044;SDS011;25735;48.122;11.422;2022-10-01T13:27:50;1.52;;;0.85;;
40044;SDS011;25735;48.122;11.422;2022-10-01T13:30:22;1.33;;;0.90;;
40044;SDS011;25735;48.122;11.422;2022-10-01T13:37:45;2.13;;;0.90;;
40044;SDS011;25735;48.122;11.422;2022-10-01T13:43:01;0.93;;;0.73;;
40044;SDS011;25735;48.122;11.422;2022-10-01T13:45:28;1.10;;;0.73;;
40044;SDS011;25735;48.122;11.422;2022-10-01T13:50:56;1.27;;;0.55;;
40044;SDS011;25735;48.122;11.422;2022-10-01T13:53:22;2.75;;;0.88;;
40044;SDS011;25735;48.122;11.422;2022-10-01T13:55:49;0.52;;;0.52;;
40044;SDS011;25735;48.122;11.422;2022-10-01T13:58:23;0.82;;;0.52;;
40044;SDS011;25735;48.122;11.422;2022-10-01T14:00:56;0.65;;;0.63;;
40044;SDS011;25735;48.122;11.422;2022-10-01T14:06:06;0.65;;;0.65;;
40044;SDS011;25735;48.122;11.422;2022-10-01T14:11:16;1.63;;;0.82;;
40044;SDS011;25735;48.122;11.422;2022-10-01T14:14:03;0.93;;;0.80;;
40044;SDS011;25735;48.122;11.422;2022-10-01T14:16:52;0.70;;;0.70;;
40044;SDS011;25735;48.122;11.422;2022-10-01T14:19:18;1.10;;;0.70;;
40044;SDS011;25735;48.122;11.422;2022-10-01T14:27:10;1.05;;;0.85;;
40044;SDS011;25735;48.122;11.422;2022-10-01T14:29:45;1.05;;;0.60;;
40044;SDS011;25735;48.122;11.422;2022-10-01T14:32:24;0.98;;;0.80;;
40044;SDS011;25735;48.122;11.422;2022-10-01T14:37:27;1.15;;;0.75;;
40044;SDS011;25735;48.122;11.422;2022-10-01T14:40:08;1.17;;;0.65;;
40044;SDS011;25735;48.122;11.422;2022-10-01T14:42:36;1.95;;;0.80;;
40044;SDS011;25735;48.122;11.422;2022-10-01T14:45:12;1.40;;;0.80;;
40044;SDS011;25735;48.122;11.422;2022-10-01T14:47:37;1.58;;;0.80;;
40044;SDS011;25735;48.122;11.422;2022-10-01T14:50:15;1.43;;;0.90;;
40044;SDS011;25735;48.122;11.422;2022-10-01T14:52:44;0.85;;;0.70;;
40044;SDS011;25735;48.122;11.422;2022-10-01T14:55:11;2.00;;;1.15;;
40044;SDS011;25735;48.122;11.422;2022-10-01T14:57:41;0.80;;;0.80;;
40044;SDS011;25735;48.122;11.422;2022-10-01T15:00:12;2.08;;;1.20;;
40044;SDS011;25735;48.122;11.422;2022-10-01T15:05:20;2.72;;;1.33;;
40044;SDS011;25735;48.122;11.422;2022-10-01T15:07:46;1.48;;;0.90;;
40044;SDS011;25735;48.122;11.422;2022-10-01T15:10:11;1.30;;;1.10;;
40044;SDS011;25735;48.122;11.422;2022-10-01T15:12:40;1.00;;;1.00;;
40044;SDS011;25735;48.122;11.422;2022-10-01T15:15:15;0.75;;;0.75;;
40044;SDS011;25735;48.122;11.422;2022-10-01T15:17:41;1.05;;;0.95;;
40044;SDS011;25735;48.122;11.422;2022-10-01T15:20:08;3.15;;;1.23;;
40044;SDS011;25735;48.122;11.422;2022-10-01T15:22:34;1.08;;;0.98;;
40044;SDS011;25735;48.122;11.422;2022-10-01T15:24:59;0.90;;;0.90;;
40044;SDS011;25735;48.122;11.422;2022-10-01T15:27:25;0.80;;;0.80;;
40044;SDS011;25735;48.122;11.422;2022-10-01T15:29:51;4.03;;;1.00;;
40044;SDS011;25735;48.122;11.422;2022-10-01T15:32:18;0.80;;;0.80;;
40044;SDS011;25735;48.122;11.422;2022-10-01T15:34:47;1.15;;;1.10;;
40044;SDS011;25735;48.122;11.422;2022-10-01T15:37:17;1.25;;;0.93;;
40044;SDS011;25735;48.122;11.422;2022-10-01T15:39:46;2.40;;;0.90;;
40044;SDS011;25735;48.122;11.422;2022-10-01T15:42:25;1.10;;;0.90;;
40044;SDS011;25735;48.122;11.422;2022-10-01T15:47:36;1.40;;;0.75;;
40044;SDS011;25735;48.122;11.422;2022-10-01T15:52:37;2.67;;;2.08;;
40044;SDS011;25735;48.122;11.422;2022-10-01T15:55:27;1.38;;;1.27;;
40044;SDS011;25735;48.122;11.422;2022-10-01T15:58:01;1.63;;;0.90;;
40044;SDS011;25735;48.122;11.422;2022-10-01T16:00:28;1.75;;;1.40;;
40044;SDS011;25735;48.122;11.422;2022-10-01T16:02:54;1.70;;;1.02;;
40044;SDS011;25735;48.122;11.422;2022-10-01T16:05:22;2.65;;;1.00;;
40044;SDS011;25735;48.122;11.422;2022-10-01T16:07:49;1.17;;;1.08;;
40044;SDS011;25735;48.122;11.422;2022-10-01T16:10:30;1.95;;;1.17;;
40044;SDS011;25735;48.122;11.422;2022-10-01T16:12:55;1.73;;;1.15;;
40044;SDS011;25735;48.122;11.422;2022-10-01T16:17:52;3.45;;;0.95;;
40044;SDS011;25735;48.122;11.422;2022-10-01T16:22:45;1.42;;;1.10;;
40044;SDS011;25735;48.122;11.422;2022-10-01T16:30:11;1.77;;;1.15;;
40044;SDS011;25735;48.122;11.422;2022-10-01T16:32:42;1.10;;;1.00;;
40044;SDS011;25735;48.122;11.422;2022-10-01T16:35:18;1.95;;;1.20;;
40044;SDS011;25735;48.122;11.422;2022-10-01T16:37:44;1.08;;;0.98;;
40044;SDS011;25735;48.122;11.422;2022-10-01T16:40:09;2.45;;;0.93;;
40044;SDS011;25735;48.122;11.422;2022-10-01T16:42:35;1.13;;;1.02;;
40044;SDS011;25735;48.122;11.422;2022-10-01T16:45:04;0.90;;;0.90;;
40044;SDS011;25735;48.122;11.422;2022-10-01T16:47:29;1.55;;;0.88;;
40044;SDS011;25735;48.122;11.422;2022-10-01T16:49:54;2.03;;;0.67;;
40044;SDS011;25735;48.122;11.422;2022-10-01T16:52:19;0.80;;;0.80;;
40044;SDS011;25735;48.122;11.422;2022-10-01T16:54:45;0.80;;;0.77;;
40044;SDS011;25735;48.122;11.422;2022-10-01T16:57:11;0.85;;;0.45;;
40044;SDS011;25735;48.122;11.422;2022-10-01T16:59:36;0.80;;;0.80;;
40044;SDS011;25735;48.122;11.422;2022-10-01T17:02:01;0.50;;;0.50;;
40044;SDS011;25735;48.122;11.422;2022-10-01T17:04:27;1.10;;;0.52;;
40044;SDS011;25735;48.122;11.422;2022-10-01T17:06:56;0.55;;;0.55;;
40044;SDS011;25735;48.122;11.422;2022-10-01T17:09:22;0.53;;;0.53;;